createdAt,value
2019-05-01T00:00:36.499Z,18.60
2019-05-01T00:03:24.083Z,19.43
2019-05-01T00:05:57.009Z,19.00
2019-05-01T00:08:27.249Z,18.30
2019-05-01T00:10:57.559Z,18.20
2019-05-01T00:13:28.044Z,18.02
2019-05-01T00:15:58.599Z,18.80
2019-05-01T00:18:28.298Z,20.27
2019-05-01T00:20:58.229Z,18.20
2019-05-01T00:23:28.531Z,19.60
2019-05-01T00:25:58.853Z,18.27
2019-05-01T00:28:28.548Z,18.23
2019-05-01T00:30:58.783Z,17.93
2019-05-01T00:33:28.529Z,16.40
2019-05-01T00:35:58.786Z,18.03
2019-05-01T00:38:28.506Z,17.32
2019-05-01T00:40:58.751Z,17.13
2019-05-01T00:43:29.190Z,16.25
2019-05-01T00:45:59.549Z,15.37
2019-05-01T00:48:29.249Z,16.17
2019-05-01T00:50:59.519Z,14.60
2019-05-01T00:53:29.226Z,15.37
2019-05-01T00:56:23.633Z,14.83
2019-05-01T00:59:09.275Z,14.50
2019-05-01T01:01:56.994Z,14.23
2019-05-01T01:04:27.591Z,16.17
2019-05-01T01:06:57.938Z,16.37
2019-05-01T01:09:28.438Z,16.95
2019-05-01T01:11:58.141Z,16.00
2019-05-01T01:14:28.366Z,15.40
2019-05-01T01:16:58.737Z,15.87
2019-05-01T01:19:28.440Z,15.83
2019-05-01T01:21:58.729Z,16.30
2019-05-01T01:24:29.213Z,15.93
2019-05-01T01:26:59.738Z,15.63
2019-05-01T01:29:30.207Z,15.67
2019-05-01T01:32:00.045Z,16.40
2019-05-01T01:34:30.294Z,16.23
2019-05-01T01:37:00.772Z,17.40
2019-05-01T01:39:31.848Z,16.87
2019-05-01T01:42:02.185Z,17.13
2019-05-01T01:44:57.744Z,17.43
2019-05-01T01:47:28.203Z,19.13
2019-05-01T01:49:59.443Z,18.10
2019-05-01T01:52:30.277Z,17.03
2019-05-01T01:54:59.992Z,18.67
2019-05-01T01:57:30.636Z,19.43
2019-05-01T02:00:00.470Z,17.97
2019-05-01T02:02:37.472Z,20.17
2019-05-01T02:05:28.896Z,20.10
2019-05-01T02:07:58.623Z,19.40
2019-05-01T02:10:41.834Z,19.20
2019-05-01T02:13:00.404Z,20.40
2019-05-01T02:15:30.644Z,21.43
2019-05-01T02:18:01.039Z,20.63
2019-05-01T02:20:31.560Z,21.17
2019-05-01T02:23:01.305Z,21.93
2019-05-01T02:25:33.374Z,19.63
2019-05-01T02:28:31.869Z,20.13
2019-05-01T02:31:28.419Z,20.40
2019-05-01T02:33:51.541Z,22.30
2019-05-01T02:36:24.049Z,21.77
2019-05-01T02:38:57.080Z,22.00
2019-05-01T02:41:31.674Z,23.10
2019-05-01T02:44:02.837Z,24.03
2019-05-01T02:46:36.431Z,23.13
2019-05-01T02:49:13.798Z,22.40
2019-05-01T02:51:45.369Z,24.23
2019-05-01T02:54:15.940Z,21.70
2019-05-01T02:56:55.890Z,21.67
2019-05-01T02:59:28.632Z,22.27
2019-05-01T03:02:00.259Z,21.97
2019-05-01T03:04:31.296Z,22.80
2019-05-01T03:07:01.848Z,23.23
2019-05-01T03:09:33.599Z,22.50
2019-05-01T03:12:04.986Z,23.57
2019-05-01T03:14:38.208Z,22.67
2019-05-01T03:17:29.910Z,24.03
2019-05-01T03:20:06.271Z,23.37
2019-05-01T03:22:43.077Z,24.17
2019-05-01T03:25:13.426Z,25.17
2019-05-01T03:27:44.388Z,24.53
2019-05-01T03:30:14.824Z,23.73
2019-05-01T03:32:45.356Z,25.73
2019-05-01T03:35:16.012Z,24.40
2019-05-01T03:37:46.359Z,23.30
2019-05-01T03:40:16.048Z,25.00
2019-05-01T03:42:46.416Z,25.27
2019-05-01T03:45:17.205Z,26.07
2019-05-01T03:47:47.534Z,24.13
2019-05-01T03:50:17.866Z,24.47
2019-05-01T03:52:48.509Z,23.87
2019-05-01T03:55:20.090Z,26.13
2019-05-01T03:57:49.778Z,23.93
2019-05-01T04:00:27.619Z,26.47
2019-05-01T04:03:20.650Z,24.43
2019-05-01T04:05:51.300Z,23.70
2019-05-01T04:08:21.862Z,23.30
2019-05-01T04:10:52.537Z,21.90
2019-05-01T04:13:22.870Z,22.93
2019-05-01T04:15:55.182Z,23.07
2019-05-01T04:18:26.673Z,23.17
2019-05-01T04:20:57.416Z,23.57
2019-05-01T04:23:27.907Z,24.60
2019-05-01T04:25:57.699Z,22.50
2019-05-01T04:28:52.128Z,23.53
2019-05-01T04:31:44.527Z,21.43
2019-05-01T04:34:21.801Z,22.03
2019-05-01T04:36:55.262Z,22.53
2019-05-01T04:39:25.787Z,22.75
2019-05-01T04:41:56.152Z,22.67
2019-05-01T04:44:26.618Z,22.00
2019-05-01T04:46:57.529Z,22.40
2019-05-01T04:49:28.079Z,24.00
2019-05-01T04:51:58.923Z,21.90
2019-05-01T04:54:29.368Z,22.67
2019-05-01T04:56:59.799Z,22.77
2019-05-01T04:59:30.131Z,22.30
2019-05-01T05:02:03.403Z,22.87
2019-05-01T05:04:34.942Z,24.33
2019-05-01T05:07:05.764Z,26.33
2019-05-01T05:09:47.042Z,26.90
2019-05-01T05:12:32.327Z,25.23
2019-05-01T05:15:27.107Z,26.03
2019-05-01T05:17:57.631Z,26.00
2019-05-01T05:20:28.038Z,27.93
2019-05-01T05:22:58.935Z,29.37
2019-05-01T05:25:29.890Z,30.07
2019-05-01T05:28:01.299Z,29.87
2019-05-01T05:30:34.182Z,32.03
2019-05-01T05:33:17.177Z,32.33
2019-05-01T05:35:40.063Z,31.53
2019-05-01T05:38:33.621Z,34.03
2019-05-01T05:41:04.478Z,35.83
2019-05-01T05:43:35.451Z,37.80
2019-05-01T05:46:06.124Z,39.33
2019-05-01T05:48:36.621Z,38.67
2019-05-01T05:51:15.785Z,36.97
2019-05-01T05:53:50.324Z,37.67
2019-05-01T05:56:26.751Z,32.97
2019-05-01T05:59:04.681Z,32.60
2019-05-01T06:02:05.758Z,28.80
2019-05-01T06:05:04.837Z,24.47
2019-05-01T06:07:40.860Z,20.17
2019-05-01T06:10:33.222Z,19.10
2019-05-01T06:13:24.816Z,17.97
2019-05-01T06:16:22.463Z,19.77
2019-05-01T06:18:57.895Z,15.67
2019-05-01T06:21:41.039Z,14.93
2019-05-01T06:24:17.735Z,14.87
2019-05-01T06:26:48.211Z,14.63
2019-05-01T06:29:19.334Z,14.70
2019-05-01T06:31:53.833Z,14.13
2019-05-01T06:34:23.891Z,14.43
2019-05-01T06:36:52.380Z,13.37
2019-05-01T06:39:21.959Z,13.27
2019-05-01T06:41:52.822Z,13.70
2019-05-01T06:44:44.213Z,12.33
2019-05-01T06:47:25.953Z,13.53
2019-05-01T06:50:32.362Z,12.30
2019-05-01T06:53:04.667Z,12.23
2019-05-01T06:55:36.617Z,13.13
2019-05-01T06:58:07.268Z,12.23
2019-05-01T07:00:43.081Z,12.60
2019-05-01T07:03:12.434Z,12.70
2019-05-01T07:05:44.572Z,12.77
2019-05-01T07:08:23.952Z,12.37
2019-05-01T07:10:46.363Z,12.73
2019-05-01T07:13:16.047Z,12.93
2019-05-01T07:15:46.311Z,13.57
2019-05-01T07:18:18.778Z,13.87
2019-05-01T07:20:53.275Z,13.60
2019-05-01T07:23:24.129Z,14.20
2019-05-01T07:25:54.717Z,14.60
2019-05-01T07:28:28.893Z,14.43
2019-05-01T07:31:09.683Z,14.83
2019-05-01T07:33:40.083Z,13.80
2019-05-01T07:36:15.432Z,14.20
2019-05-01T07:38:44.404Z,13.67
2019-05-01T07:41:16.156Z,15.00
2019-05-01T07:44:00.993Z,15.97
2019-05-01T07:46:40.099Z,15.03
2019-05-01T07:49:13.109Z,14.60
2019-05-01T07:51:50.783Z,15.97
2019-05-01T07:54:23.348Z,14.97
2019-05-01T07:56:54.154Z,15.50
2019-05-01T07:59:27.579Z,15.50
2019-05-01T08:02:06.056Z,16.33
2019-05-01T08:04:36.689Z,14.90
2019-05-01T08:07:07.195Z,14.03
2019-05-01T08:09:36.907Z,16.87
2019-05-01T08:12:07.147Z,15.30
2019-05-01T08:14:37.525Z,16.43
2019-05-01T08:17:08.153Z,15.27
2019-05-01T08:19:52.539Z,16.07
2019-05-01T08:22:32.021Z,16.07
2019-05-01T08:25:05.554Z,16.40
2019-05-01T08:27:57.948Z,16.37
2019-05-01T08:30:47.928Z,15.47
2019-05-01T08:33:34.999Z,15.67
2019-05-01T08:36:06.773Z,16.27
2019-05-01T08:38:37.970Z,16.73
2019-05-01T08:41:08.317Z,17.60
2019-05-01T08:43:38.672Z,16.17
2019-05-01T08:46:26.615Z,16.17
2019-05-01T08:49:12.597Z,17.77
2019-05-01T08:51:42.925Z,17.30
2019-05-01T08:54:12.640Z,16.23
2019-05-01T08:56:43.756Z,22.67
2019-05-01T08:59:19.291Z,18.70
2019-05-01T09:01:50.616Z,18.63
2019-05-01T09:04:18.847Z,17.50
2019-05-01T09:06:49.271Z,16.47
2019-05-01T09:09:19.638Z,17.03
2019-05-01T09:11:49.989Z,17.23
2019-05-01T09:14:20.322Z,17.70
2019-05-01T09:16:52.472Z,16.57
2019-05-01T09:19:22.633Z,17.13
2019-05-01T09:21:52.989Z,17.73
2019-05-01T09:24:27.847Z,17.63
2019-05-01T09:27:18.615Z,18.60
2019-05-01T09:29:51.569Z,17.87
2019-05-01T09:32:21.619Z,18.47
2019-05-01T09:34:51.325Z,17.77
2019-05-01T09:37:20.933Z,18.97
2019-05-01T09:39:50.559Z,18.27
2019-05-01T09:42:23.791Z,18.63
2019-05-01T09:44:52.117Z,20.03
2019-05-01T09:47:23.187Z,20.17
2019-05-01T09:49:53.950Z,17.93
2019-05-01T09:52:38.639Z,18.83
2019-05-01T09:55:23.077Z,18.17
2019-05-01T09:57:52.682Z,18.27
2019-05-01T10:00:28.700Z,19.13
2019-05-01T10:02:59.085Z,19.20
2019-05-01T10:05:29.440Z,19.37
2019-05-01T10:08:03.962Z,19.37
2019-05-01T10:10:31.940Z,19.80
2019-05-01T10:13:02.297Z,21.80
2019-05-01T10:15:32.643Z,19.77
2019-05-01T10:18:03.015Z,19.20
2019-05-01T10:20:32.727Z,18.93
2019-05-01T10:23:02.973Z,19.63
2019-05-01T10:25:35.062Z,19.47
2019-05-01T10:28:12.946Z,18.77
2019-05-01T10:30:57.319Z,19.47
2019-05-01T10:33:32.660Z,18.73
2019-05-01T10:36:18.796Z,18.90
2019-05-01T10:38:46.903Z,19.43
2019-05-01T10:41:17.513Z,19.40
2019-05-01T10:43:47.232Z,19.23
2019-05-01T10:46:17.476Z,18.93
2019-05-01T10:48:47.181Z,19.30
2019-05-01T10:51:17.438Z,19.97
2019-05-01T10:53:47.147Z,19.03
2019-05-01T10:56:17.415Z,20.13
2019-05-01T10:58:47.139Z,18.67
2019-05-01T11:01:39.405Z,19.73
2019-05-01T11:04:09.915Z,18.30
2019-05-01T11:06:40.297Z,18.47
2019-05-01T11:09:10.650Z,17.13
2019-05-01T11:11:42.403Z,16.27
2019-05-01T11:14:24.518Z,16.87
2019-05-01T11:16:54.972Z,16.80
2019-05-01T11:19:25.321Z,17.37
2019-05-01T11:21:55.675Z,15.87
2019-05-01T11:24:26.069Z,17.10
2019-05-01T11:26:55.770Z,18.67
2019-05-01T11:29:26.046Z,18.13
2019-05-01T11:32:02.287Z,18.77
2019-05-01T11:34:47.556Z,18.30
2019-05-01T11:37:32.215Z,18.97
2019-05-01T11:40:07.813Z,18.50
2019-05-01T11:42:37.505Z,18.87
2019-05-01T11:45:09.169Z,18.87
2019-05-01T11:47:38.854Z,19.53
2019-05-01T11:50:09.109Z,18.80
2019-05-01T11:52:39.431Z,18.63
2019-05-01T11:55:10.017Z,18.70
2019-05-01T11:57:39.694Z,17.60
2019-05-01T12:00:10.121Z,18.40
2019-05-01T12:02:40.396Z,18.83
2019-05-01T12:05:10.768Z,18.43
2019-05-01T12:07:41.144Z,20.67
2019-05-01T12:10:10.990Z,20.87
2019-05-01T12:12:41.245Z,19.53
2019-05-01T12:15:11.242Z,19.60
2019-05-01T12:17:46.606Z,19.60
2019-05-01T12:20:18.744Z,18.20
2019-05-01T12:22:51.379Z,18.33
2019-05-01T12:25:21.076Z,19.90
2019-05-01T12:27:51.445Z,19.70
2019-05-01T12:30:21.900Z,19.10
2019-05-01T12:32:52.261Z,20.60
2019-05-01T12:35:22.612Z,19.17
2019-05-01T12:37:55.487Z,19.00
2019-05-01T12:40:26.195Z,19.60
2019-05-01T12:42:56.562Z,20.43
2019-05-01T12:45:26.913Z,18.10
2019-05-01T12:47:59.561Z,18.50
2019-05-01T12:50:29.931Z,19.40
2019-05-01T12:53:25.452Z,20.67
2019-05-01T12:56:16.924Z,18.10
2019-05-01T12:58:48.667Z,19.00
2019-05-01T13:01:19.445Z,18.70
2019-05-01T13:03:49.688Z,19.07
2019-05-01T13:06:20.049Z,19.30
2019-05-01T13:08:49.766Z,18.97
2019-05-01T13:11:19.370Z,20.80
2019-05-01T13:13:49.351Z,18.63
2019-05-01T13:16:19.609Z,19.03
2019-05-01T13:18:49.316Z,19.07
2019-05-01T13:21:19.551Z,18.47
2019-05-01T13:23:49.986Z,17.03
2019-05-01T13:26:46.573Z,18.13
2019-05-01T13:29:27.705Z,17.50
2019-05-01T13:32:16.942Z,15.73
2019-05-01T13:34:47.411Z,16.83
2019-05-01T13:37:17.145Z,17.03
2019-05-01T13:39:46.745Z,17.63
2019-05-01T13:42:17.034Z,17.07
2019-05-01T13:44:47.352Z,17.07
2019-05-01T13:47:17.704Z,16.27
2019-05-01T13:49:48.029Z,15.60
2019-05-01T13:52:19.321Z,16.43
2019-05-01T13:54:50.104Z,17.83
2019-05-01T13:57:20.531Z,17.10
2019-05-01T13:59:50.855Z,16.53
2019-05-01T14:02:21.224Z,16.70
2019-05-01T14:04:51.570Z,17.23
2019-05-01T14:07:21.267Z,15.93
2019-05-01T14:09:51.515Z,16.33
2019-05-01T14:12:21.206Z,16.50
2019-05-01T14:14:51.435Z,15.90
2019-05-01T14:17:21.161Z,17.23
2019-05-01T14:20:01.408Z,15.97
2019-05-01T14:22:47.216Z,16.27
2019-05-01T14:25:17.593Z,16.90
2019-05-01T14:27:47.927Z,18.07
2019-05-01T14:30:18.386Z,15.60
2019-05-01T14:32:51.522Z,14.90
2019-05-01T14:35:20.102Z,15.40
2019-05-01T14:37:49.709Z,13.83
2019-05-01T14:40:19.392Z,14.47
2019-05-01T14:42:49.704Z,14.97
2019-05-01T14:45:20.285Z,15.87
2019-05-01T14:47:50.724Z,15.43
2019-05-01T14:50:20.413Z,16.37
2019-05-01T14:52:50.807Z,17.10
2019-05-01T14:55:21.196Z,16.80
2019-05-01T14:57:51.594Z,17.70
2019-05-01T15:00:22.329Z,16.47
2019-05-01T15:02:52.665Z,18.80
2019-05-01T15:05:23.009Z,18.13
2019-05-01T15:07:53.351Z,17.13
2019-05-01T15:10:23.773Z,16.73
2019-05-01T15:12:55.722Z,17.60
2019-05-01T15:15:41.289Z,18.03
2019-05-01T15:18:15.985Z,17.73
2019-05-01T15:20:46.563Z,17.67
2019-05-01T15:23:17.146Z,17.10
2019-05-01T15:25:48.759Z,18.73
2019-05-01T15:28:18.656Z,17.90
2019-05-01T15:30:48.255Z,17.30
2019-05-01T15:33:18.479Z,16.63
2019-05-01T15:35:48.676Z,17.33
2019-05-01T15:38:19.326Z,16.77
2019-05-01T15:41:10.359Z,17.27
2019-05-01T15:43:48.093Z,16.50
2019-05-01T15:46:19.122Z,17.60
2019-05-01T15:48:48.845Z,16.70
2019-05-01T15:51:18.583Z,17.70
2019-05-01T15:53:48.185Z,16.40
2019-05-01T15:56:18.421Z,16.10
2019-05-01T15:58:48.689Z,17.73
2019-05-01T16:01:18.692Z,17.32
2019-05-01T16:03:49.003Z,16.80
2019-05-01T16:06:19.669Z,16.50
2019-05-01T16:08:49.934Z,16.50
2019-05-01T16:11:38.638Z,16.10
2019-05-01T16:14:08.903Z,15.13
2019-05-01T16:16:38.635Z,16.05
2019-05-01T16:19:08.878Z,16.10
2019-05-01T16:21:39.266Z,15.85
2019-05-01T16:24:09.595Z,15.17
2019-05-01T16:26:39.979Z,15.70
2019-05-01T16:29:10.328Z,17.07
2019-05-01T16:31:40.725Z,16.70
2019-05-01T16:34:11.159Z,17.33
2019-05-01T16:36:41.546Z,16.20
2019-05-01T16:39:28.851Z,17.60
2019-05-01T16:41:59.119Z,18.07
2019-05-01T16:44:29.509Z,17.77
2019-05-01T16:46:59.874Z,18.50
2019-05-01T16:49:30.239Z,17.67
2019-05-01T16:52:00.648Z,16.87
2019-05-01T16:54:30.979Z,17.70
2019-05-01T16:57:01.361Z,18.73
2019-05-01T16:59:31.069Z,18.23
2019-05-01T17:02:14.604Z,17.13
2019-05-01T17:05:01.795Z,17.23
2019-05-01T17:07:39.455Z,17.33
2019-05-01T17:10:29.138Z,17.27
2019-05-01T17:12:59.109Z,17.00
2019-05-01T17:15:34.605Z,16.33
2019-05-01T17:18:05.278Z,16.60
2019-05-01T17:20:35.703Z,17.33
2019-05-01T17:23:06.141Z,17.33
2019-05-01T17:25:35.976Z,18.27
2019-05-01T17:28:08.270Z,16.53
2019-05-01T17:30:50.433Z,17.23
2019-05-01T17:33:22.141Z,15.45
2019-05-01T17:35:51.894Z,15.43
2019-05-01T17:38:22.191Z,15.67
2019-05-01T17:40:53.445Z,16.00
2019-05-01T17:43:23.195Z,14.47
2019-05-01T17:45:52.781Z,15.60
2019-05-01T17:48:22.404Z,15.20
2019-05-01T17:50:54.998Z,14.53
2019-05-01T17:53:23.911Z,14.03
2019-05-01T17:55:53.604Z,14.97
2019-05-01T17:58:23.873Z,15.03
2019-05-01T18:01:27.806Z,14.87
2019-05-01T18:04:11.367Z,14.87
2019-05-01T18:06:46.677Z,14.50
2019-05-01T18:09:15.587Z,14.90
2019-05-01T18:11:47.210Z,15.57
2019-05-01T18:14:17.323Z,14.50
2019-05-01T18:16:47.726Z,15.67
2019-05-01T18:19:17.427Z,15.60
2019-05-01T18:21:52.195Z,14.73
2019-05-01T18:24:40.713Z,15.83
2019-05-01T18:27:32.717Z,15.90
2019-05-01T18:30:07.001Z,15.40
2019-05-01T18:32:41.454Z,16.73
2019-05-01T18:35:14.085Z,17.87
2019-05-01T18:37:55.118Z,16.93
2019-05-01T18:40:38.291Z,17.83
2019-05-01T18:43:08.768Z,16.80
2019-05-01T18:45:51.547Z,17.13
2019-05-01T18:48:22.890Z,18.43
2019-05-01T18:50:54.913Z,18.80
2019-05-01T18:53:26.080Z,18.27
2019-05-01T18:55:56.523Z,18.87
2019-05-01T18:58:26.929Z,18.75
2019-05-01T19:00:56.681Z,18.90
2019-05-01T19:03:28.595Z,19.40
2019-05-01T19:05:59.037Z,18.03
2019-05-01T19:08:29.674Z,18.83
2019-05-01T19:11:11.705Z,18.63
2019-05-01T19:13:31.706Z,18.83
2019-05-01T19:16:03.458Z,18.23
2019-05-01T19:18:34.384Z,18.95
2019-05-01T19:21:05.034Z,18.93
2019-05-01T19:23:36.502Z,21.60
2019-05-01T19:26:07.472Z,19.37
2019-05-01T19:28:38.098Z,19.40
2019-05-01T19:31:07.791Z,18.10
2019-05-01T19:33:38.137Z,20.00
2019-05-01T19:36:10.205Z,20.60
2019-05-01T19:38:39.985Z,19.30
2019-05-01T19:41:13.928Z,19.13
2019-05-01T19:43:42.203Z,18.50
2019-05-01T19:46:12.787Z,19.63
2019-05-01T19:48:45.324Z,19.40
2019-05-01T19:51:14.415Z,18.48
2019-05-01T19:53:46.457Z,20.07
2019-05-01T19:56:16.589Z,19.77
2019-05-01T19:58:48.072Z,20.33
2019-05-01T20:01:18.638Z,20.60
2019-05-01T20:03:49.026Z,20.10
2019-05-01T20:06:20.388Z,20.97
2019-05-01T20:08:50.760Z,19.97
2019-05-01T20:11:21.175Z,20.13
2019-05-01T20:13:51.562Z,20.10
2019-05-01T20:16:22.757Z,22.00
2019-05-01T20:18:53.122Z,20.77
2019-05-01T20:21:22.813Z,20.27
2019-05-01T20:23:53.180Z,21.20
2019-05-01T20:26:26.853Z,20.57
2019-05-01T20:28:57.467Z,21.43
2019-05-01T20:31:28.282Z,20.70
2019-05-01T20:33:59.555Z,20.13
2019-05-01T20:36:30.061Z,21.27
2019-05-01T20:39:00.454Z,20.87
2019-05-01T20:41:30.135Z,19.30
2019-05-01T20:44:00.399Z,19.20
2019-05-01T20:46:30.798Z,18.30
2019-05-01T20:49:06.296Z,17.07
2019-05-01T20:51:32.480Z,17.37
2019-05-01T20:54:02.764Z,17.27
2019-05-01T20:56:37.555Z,16.07
2019-05-01T20:59:07.969Z,15.60
2019-05-01T21:01:38.349Z,16.43
2019-05-01T21:04:27.057Z,16.10
2019-05-01T21:07:15.608Z,15.93
2019-05-01T21:09:47.771Z,15.43
2019-05-01T21:12:20.040Z,14.83
2019-05-01T21:14:51.085Z,15.47
2019-05-01T21:17:21.665Z,14.97
2019-05-01T21:19:52.066Z,15.03
2019-05-01T21:22:23.439Z,13.60
2019-05-01T21:24:53.873Z,14.70
2019-05-01T21:27:24.403Z,14.87
2019-05-01T21:29:54.882Z,14.13
2019-05-01T21:32:27.455Z,13.93
2019-05-01T21:34:57.253Z,15.50
2019-05-01T21:37:27.591Z,15.07
2019-05-01T21:39:57.961Z,13.57
2019-05-01T21:42:28.332Z,13.40
2019-05-01T21:44:58.697Z,14.10
2019-05-01T21:47:29.046Z,13.37
2019-05-01T21:49:59.446Z,12.00
2019-05-01T21:52:29.807Z,11.53
2019-05-01T21:55:00.274Z,10.70
2019-05-01T21:57:33.185Z,11.30
2019-05-01T22:00:02.601Z,11.07
2019-05-01T22:02:32.934Z,12.73
2019-05-01T22:05:04.000Z,11.60
2019-05-01T22:07:34.637Z,12.43
2019-05-01T22:10:05.507Z,12.00
2019-05-01T22:12:35.297Z,11.37
2019-05-01T22:15:12.782Z,11.80
2019-05-01T22:18:00.308Z,11.03
2019-05-01T22:20:41.155Z,11.43
2019-05-01T22:23:17.108Z,11.77
2019-05-01T22:25:48.361Z,11.83
2019-05-01T22:28:30.648Z,11.33
2019-05-01T22:31:25.504Z,10.23
2019-05-01T22:34:02.844Z,11.47
2019-05-01T22:36:33.116Z,10.97
2019-05-01T22:39:06.121Z,10.03
2019-05-01T22:41:34.706Z,8.97
2019-05-01T22:44:05.222Z,8.90
2019-05-01T22:46:39.060Z,8.47
2019-05-01T22:49:06.152Z,8.20
2019-05-01T22:51:36.526Z,7.83
2019-05-01T22:54:06.241Z,7.67
2019-05-01T22:56:36.514Z,7.13
2019-05-01T22:59:06.187Z,7.07
2019-05-01T23:01:36.673Z,6.70
2019-05-01T23:04:11.969Z,7.30
2019-05-01T23:06:41.723Z,7.43
2019-05-01T23:09:12.968Z,7.17
2019-05-01T23:11:46.274Z,6.37
2019-05-01T23:14:16.888Z,6.30
2019-05-01T23:16:54.605Z,6.43
2019-05-01T23:19:27.829Z,6.55
2019-05-01T23:21:58.348Z,6.63
2019-05-01T23:24:28.933Z,5.90
2019-05-01T23:26:58.608Z,5.80
2019-05-01T23:29:28.873Z,6.60
2019-05-01T23:31:59.537Z,6.23
2019-05-01T23:34:29.907Z,6.10
2019-05-01T23:37:00.231Z,6.50
2019-05-01T23:39:39.759Z,7.00
2019-05-01T23:42:02.615Z,7.30
2019-05-01T23:44:32.987Z,7.53
2019-05-01T23:47:03.411Z,6.70
2019-05-01T23:49:33.724Z,6.33
2019-05-01T23:52:05.220Z,6.83
2019-05-01T23:54:34.989Z,7.05
2019-05-01T23:57:05.272Z,6.50
2019-05-01T23:59:34.999Z,6.83
